sensor_id;sensor_type;location;lat;lon;timestamp;pressure;altitude;pressure_sealevel;temperature;humidity
10988;BME280;5547;42.672;23.230;2023-02-19T00:00:17;93638.03;;;4.18;67.19
10988;BME280;5547;42.672;23.230;2023-02-19T00:03:17;93639.59;;;3.96;67.54
10988;BME280;5547;42.672;23.230;2023-02-19T00:06:19;93628.28;;;4.18;65.78
10988;BME280;5547;42.672;23.230;2023-02-19T00:09:20;93636.00;;;4.95;63.38
10988;BME280;5547;42.672;23.230;2023-02-19T00:12:20;93639.84;;;4.40;65.86
10988;BME280;5547;42.672;23.230;2023-02-19T00:15:21;93610.03;;;4.06;66.71
10988;BME280;5547;42.672;23.230;2023-02-19T00:18:22;93602.19;;;4.10;66.06
10988;BME280;5547;42.672;23.230;2023-02-19T00:21:23;93627.97;;;5.21;62.57
10988;BME280;5547;42.672;23.230;2023-02-19T00:24:24;93583.97;;;5.77;59.43
10988;BME280;5547;42.672;23.230;2023-02-19T00:27:24;93617.78;;;6.86;56.30
10988;BME280;5547;42.672;23.230;2023-02-19T00:30:25;93616.44;;;7.39;54.23
10988;BME280;5547;42.672;23.230;2023-02-19T00:33:25;93616.47;;;7.64;53.23
10988;BME280;5547;42.672;23.230;2023-02-19T00:36:29;93619.09;;;7.92;51.99
10988;BME280;5547;42.672;23.230;2023-02-19T00:39:31;93596.38;;;8.20;50.77
10988;BME280;5547;42.672;23.230;2023-02-19T00:42:31;93618.69;;;8.33;50.66
10988;BME280;5547;42.672;23.230;2023-02-19T00:45:32;93611.13;;;8.43;50.11
10988;BME280;5547;42.672;23.230;2023-02-19T00:48:34;93613.38;;;8.58;49.49
10988;BME280;5547;42.672;23.230;2023-02-19T00:51:37;93588.81;;;8.44;50.04
10988;BME280;5547;42.672;23.230;2023-02-19T00:54:37;93580.47;;;8.31;49.60
10988;BME280;5547;42.672;23.230;2023-02-19T00:57:38;93592.94;;;8.45;49.68
10988;BME280;5547;42.672;23.230;2023-02-19T01:00:38;93591.72;;;8.74;48.67
10988;BME280;5547;42.672;23.230;2023-02-19T01:03:39;93587.53;;;8.80;48.70
10988;BME280;5547;42.672;23.230;2023-02-19T01:06:39;93577.59;;;8.92;48.52
10988;BME280;5547;42.672;23.230;2023-02-19T01:09:40;93561.22;;;9.11;47.26
10988;BME280;5547;42.672;23.230;2023-02-19T01:12:40;93557.13;;;8.96;47.22
10988;BME280;5547;42.672;23.230;2023-02-19T01:15:41;93532.25;;;9.35;46.03
10988;BME280;5547;42.672;23.230;2023-02-19T01:18:41;93568.72;;;9.23;46.97
10988;BME280;5547;42.672;23.230;2023-02-19T01:21:42;93578.34;;;8.96;47.03
10988;BME280;5547;42.672;23.230;2023-02-19T01:24:42;93589.50;;;9.39;45.88
10988;BME280;5547;42.672;23.230;2023-02-19T01:27:43;93573.78;;;9.03;47.79
10988;BME280;5547;42.672;23.230;2023-02-19T01:30:43;93586.50;;;9.30;46.77
10988;BME280;5547;42.672;23.230;2023-02-19T01:33:58;93556.72;;;9.08;46.88
10988;BME280;5547;42.672;23.230;2023-02-19T01:36:59;93605.97;;;9.09;47.39
10988;BME280;5547;42.672;23.230;2023-02-19T01:40:00;93619.28;;;9.02;47.36
10988;BME280;5547;42.672;23.230;2023-02-19T01:43:00;93608.88;;;8.12;49.48
10988;BME280;5547;42.672;23.230;2023-02-19T01:46:02;93626.94;;;6.22;56.63
10988;BME280;5547;42.672;23.230;2023-02-19T01:52:13;93616.50;;;5.03;60.90
10988;BME280;5547;42.672;23.230;2023-02-19T01:55:16;93591.81;;;4.51;62.70
10988;BME280;5547;42.672;23.230;2023-02-19T01:58:17;93592.28;;;4.94;60.65
10988;BME280;5547;42.672;23.230;2023-02-19T02:01:17;93599.81;;;6.29;55.11
10988;BME280;5547;42.672;23.230;2023-02-19T02:04:18;93582.94;;;6.55;53.91
10988;BME280;5547;42.672;23.230;2023-02-19T02:07:20;93607.75;;;7.38;51.69
10988;BME280;5547;42.672;23.230;2023-02-19T02:10:40;93586.97;;;7.62;50.71
10988;BME280;5547;42.672;23.230;2023-02-19T02:13:41;93613.44;;;8.12;49.52
10988;BME280;5547;42.672;23.230;2023-02-19T02:23:08;93601.69;;;8.16;48.99
10988;BME280;5547;42.672;23.230;2023-02-19T02:33:35;93626.66;;;8.26;48.47
10988;BME280;5547;42.672;23.230;2023-02-19T02:36:42;93618.34;;;8.17;48.51
10988;BME280;5547;42.672;23.230;2023-02-19T02:39:44;93619.81;;;8.50;47.31
10988;BME280;5547;42.672;23.230;2023-02-19T02:42:46;93637.59;;;8.57;47.28
10988;BME280;5547;42.672;23.230;2023-02-19T02:45:46;93642.88;;;8.64;46.96
10988;BME280;5547;42.672;23.230;2023-02-19T02:48:51;93645.97;;;8.12;49.08
10988;BME280;5547;42.672;23.230;2023-02-19T02:51:53;93613.16;;;6.54;54.30
10988;BME280;5547;42.672;23.230;2023-02-19T02:54:55;93634.47;;;6.20;56.33
10988;BME280;5547;42.672;23.230;2023-02-19T02:58:05;93616.09;;;5.86;56.00
10988;BME280;5547;42.672;23.230;2023-02-19T03:01:14;93635.06;;;6.62;53.64
10988;BME280;5547;42.672;23.230;2023-02-19T03:04:43;93615.94;;;6.90;52.36
10988;BME280;5547;42.672;23.230;2023-02-19T03:08:40;93652.41;;;7.68;50.35
10988;BME280;5547;42.672;23.230;2023-02-19T03:11:44;93649.38;;;7.66;50.04
10988;BME280;5547;42.672;23.230;2023-02-19T03:15:08;93658.81;;;7.49;50.55
10988;BME280;5547;42.672;23.230;2023-02-19T03:18:29;93657.31;;;7.73;50.40
10988;BME280;5547;42.672;23.230;2023-02-19T03:21:58;93655.38;;;7.38;51.27
10988;BME280;5547;42.672;23.230;2023-02-19T03:25:04;93626.94;;;7.03;51.97
10988;BME280;5547;42.672;23.230;2023-02-19T03:28:27;93668.56;;;7.24;51.98
10988;BME280;5547;42.672;23.230;2023-02-19T03:31:52;93634.47;;;6.93;51.44
10988;BME280;5547;42.672;23.230;2023-02-19T03:34:57;93680.25;;;7.12;51.89
10988;BME280;5547;42.672;23.230;2023-02-19T03:38:15;93659.03;;;7.01;51.81
10988;BME280;5547;42.672;23.230;2023-02-19T03:51:36;93682.06;;;6.93;53.39
10988;BME280;5547;42.672;23.230;2023-02-19T03:58:03;93691.97;;;7.14;52.53
10988;BME280;5547;42.672;23.230;2023-02-19T04:01:14;93698.41;;;7.17;52.39
10988;BME280;5547;42.672;23.230;2023-02-19T04:07:27;93682.50;;;7.13;52.46
10988;BME280;5547;42.672;23.230;2023-02-19T04:10:30;93682.88;;;7.05;52.39
10988;BME280;5547;42.672;23.230;2023-02-19T04:13:39;93689.25;;;6.97;52.47
10988;BME280;5547;42.672;23.230;2023-02-19T04:16:45;93679.94;;;7.35;51.66
10988;BME280;5547;42.672;23.230;2023-02-19T04:19:48;93667.03;;;7.15;51.93
10988;BME280;5547;42.672;23.230;2023-02-19T04:22:49;93659.00;;;6.94;52.45
10988;BME280;5547;42.672;23.230;2023-02-19T04:25:57;93707.53;;;7.30;52.41
10988;BME280;5547;42.672;23.230;2023-02-19T04:28:59;93720.13;;;7.76;51.40
10988;BME280;5547;42.672;23.230;2023-02-19T04:32:00;93720.00;;;7.33;52.47
10988;BME280;5547;42.672;23.230;2023-02-19T04:35:00;93704.13;;;7.33;52.48
10988;BME280;5547;42.672;23.230;2023-02-19T04:38:01;93709.75;;;7.21;52.84
10988;BME280;5547;42.672;23.230;2023-02-19T04:41:01;93707.91;;;7.36;52.60
10988;BME280;5547;42.672;23.230;2023-02-19T04:44:02;93715.47;;;7.30;53.56
10988;BME280;5547;42.672;23.230;2023-02-19T04:47:02;93726.94;;;7.92;52.14
10988;BME280;5547;42.672;23.230;2023-02-19T04:50:03;93704.59;;;7.71;51.95
10988;BME280;5547;42.672;23.230;2023-02-19T04:53:04;93712.44;;;7.39;52.71
10988;BME280;5547;42.672;23.230;2023-02-19T04:56:06;93740.50;;;7.58;53.31
10988;BME280;5547;42.672;23.230;2023-02-19T04:59:07;93739.31;;;7.45;53.70
10988;BME280;5547;42.672;23.230;2023-02-19T05:02:07;93751.78;;;7.41;54.06
10988;BME280;5547;42.672;23.230;2023-02-19T05:05:08;93746.94;;;7.61;53.63
10988;BME280;5547;42.672;23.230;2023-02-19T05:08:08;93734.41;;;7.50;54.17
10988;BME280;5547;42.672;23.230;2023-02-19T05:11:10;93747.22;;;7.41;54.17
10988;BME280;5547;42.672;23.230;2023-02-19T05:14:11;93731.41;;;7.55;53.18
10988;BME280;5547;42.672;23.230;2023-02-19T05:17:11;93715.81;;;7.22;54.53
10988;BME280;5547;42.672;23.230;2023-02-19T05:20:12;93744.19;;;7.39;54.42
10988;BME280;5547;42.672;23.230;2023-02-19T05:23:13;93705.66;;;7.38;53.75
10988;BME280;5547;42.672;23.230;2023-02-19T05:26:20;93726.03;;;7.30;54.14
10988;BME280;5547;42.672;23.230;2023-02-19T05:29:21;93751.25;;;7.06;55.76
10988;BME280;5547;42.672;23.230;2023-02-19T05:32:21;93716.78;;;6.88;55.53
10988;BME280;5547;42.672;23.230;2023-02-19T05:35:22;93754.69;;;7.14;55.55
10988;BME280;5547;42.672;23.230;2023-02-19T05:38:22;93749.66;;;6.91;56.71
10988;BME280;5547;42.672;23.230;2023-02-19T05:41:29;93763.63;;;6.91;57.11
10988;BME280;5547;42.672;23.230;2023-02-19T05:44:30;93763.16;;;6.75;57.70
10988;BME280;5547;42.672;23.230;2023-02-19T05:47:30;93735.59;;;6.76;57.38
10988;BME280;5547;42.672;23.230;2023-02-19T05:50:32;93762.09;;;6.87;57.79
10988;BME280;5547;42.672;23.230;2023-02-19T05:53:36;93767.22;;;7.24;57.05
10988;BME280;5547;42.672;23.230;2023-02-19T05:56:40;93740.06;;;7.38;56.18
10988;BME280;5547;42.672;23.230;2023-02-19T05:59:41;93750.28;;;7.50;55.82
10988;BME280;5547;42.672;23.230;2023-02-19T06:02:42;93763.56;;;7.65;56.05
10988;BME280;5547;42.672;23.230;2023-02-19T06:05:43;93781.13;;;8.23;53.80
10988;BME280;5547;42.672;23.230;2023-02-19T06:08:44;93793.63;;;8.40;53.42
10988;BME280;5547;42.672;23.230;2023-02-19T06:11:44;93802.00;;;8.53;52.94
10988;BME280;5547;42.672;23.230;2023-02-19T06:14:45;93754.22;;;8.17;52.91
10988;BME280;5547;42.672;23.230;2023-02-19T06:17:45;93784.88;;;8.22;53.57
10988;BME280;5547;42.672;23.230;2023-02-19T06:20:46;93801.22;;;8.53;52.23
10988;BME280;5547;42.672;23.230;2023-02-19T06:23:47;93789.06;;;8.37;52.41
10988;BME280;5547;42.672;23.230;2023-02-19T06:26:47;93782.28;;;8.36;51.71
10988;BME280;5547;42.672;23.230;2023-02-19T06:29:48;93783.00;;;8.26;52.58
10988;BME280;5547;42.672;23.230;2023-02-19T06:32:50;93787.19;;;8.27;52.39
10988;BME280;5547;42.672;23.230;2023-02-19T06:35:51;93794.78;;;8.57;51.71
10988;BME280;5547;42.672;23.230;2023-02-19T06:38:52;93794.41;;;8.52;51.83
10988;BME280;5547;42.672;23.230;2023-02-19T06:41:56;93754.97;;;8.14;52.23
10988;BME280;5547;42.672;23.230;2023-02-19T06:44:56;93781.50;;;8.43;51.53
10988;BME280;5547;42.672;23.230;2023-02-19T06:47:57;93772.44;;;8.44;50.93
10988;BME280;5547;42.672;23.230;2023-02-19T06:50:58;93777.72;;;8.55;50.92
10988;BME280;5547;42.672;23.230;2023-02-19T06:53:58;93751.63;;;8.46;50.55
10988;BME280;5547;42.672;23.230;2023-02-19T06:57:01;93763.34;;;8.56;49.68
10988;BME280;5547;42.672;23.230;2023-02-19T07:00:02;93800.47;;;8.88;49.59
10988;BME280;5547;42.672;23.230;2023-02-19T07:03:03;93770.91;;;8.72;49.58
10988;BME280;5547;42.672;23.230;2023-02-19T07:06:04;93818.63;;;9.04;49.50
10988;BME280;5547;42.672;23.230;2023-02-19T07:09:06;93812.47;;;9.39;48.33
10988;BME280;5547;42.672;23.230;2023-02-19T07:12:07;93814.75;;;9.44;48.02
10988;BME280;5547;42.672;23.230;2023-02-19T07:15:08;93780.28;;;9.34;47.98
10988;BME280;5547;42.672;23.230;2023-02-19T07:18:08;93826.00;;;9.81;48.20
10988;BME280;5547;42.672;23.230;2023-02-19T07:21:11;93785.03;;;9.75;47.88
10988;BME280;5547;42.672;23.230;2023-02-19T07:24:12;93765.19;;;9.97;48.12
10988;BME280;5547;42.672;23.230;2023-02-19T07:27:12;93812.44;;;10.35;46.52
10988;BME280;5547;42.672;23.230;2023-02-19T07:30:13;93789.34;;;10.21;46.56
10988;BME280;5547;42.672;23.230;2023-02-19T07:33:13;93806.38;;;10.34;46.74
10988;BME280;5547;42.672;23.230;2023-02-19T07:36:16;93810.19;;;10.33;46.97
10988;BME280;5547;42.672;23.230;2023-02-19T07:39:17;93756.31;;;10.18;46.77
10988;BME280;5547;42.672;23.230;2023-02-19T07:42:17;93802.44;;;10.53;46.20
10988;BME280;5547;42.672;23.230;2023-02-19T07:45:17;93801.22;;;10.65;46.82
10988;BME280;5547;42.672;23.230;2023-02-19T07:48:18;93798.47;;;10.79;46.07
10988;BME280;5547;42.672;23.230;2023-02-19T07:51:19;93741.47;;;10.24;46.48
10988;BME280;5547;42.672;23.230;2023-02-19T07:54:20;93790.88;;;10.74;46.40
10988;BME280;5547;42.672;23.230;2023-02-19T07:57:20;93791.09;;;10.94;46.09
10988;BME280;5547;42.672;23.230;2023-02-19T08:00:21;93751.69;;;10.82;46.57
10988;BME280;5547;42.672;23.230;2023-02-19T08:03:22;93791.00;;;11.05;45.40
10988;BME280;5547;42.672;23.230;2023-02-19T08:06:23;93778.88;;;11.00;45.57
10988;BME280;5547;42.672;23.230;2023-02-19T08:09:23;93792.56;;;11.40;44.34
10988;BME280;5547;42.672;23.230;2023-02-19T08:12:24;93790.72;;;11.33;45.16
10988;BME280;5547;42.672;23.230;2023-02-19T08:15:43;93800.97;;;11.35;45.03
10988;BME280;5547;42.672;23.230;2023-02-19T08:18:45;93794.31;;;11.54;45.14
10988;BME280;5547;42.672;23.230;2023-02-19T08:21:46;93798.13;;;11.53;44.77
10988;BME280;5547;42.672;23.230;2023-02-19T08:24:47;93793.88;;;11.59;44.45
10988;BME280;5547;42.672;23.230;2023-02-19T08:27:47;93799.66;;;11.50;45.52
10988;BME280;5547;42.672;23.230;2023-02-19T08:30:48;93777.03;;;11.31;45.77
10988;BME280;5547;42.672;23.230;2023-02-19T08:33:48;93796.84;;;11.65;44.52
10988;BME280;5547;42.672;23.230;2023-02-19T08:36:49;93762.50;;;11.74;43.95
10988;BME280;5547;42.672;23.230;2023-02-19T08:39:50;93789.41;;;11.83;43.96
10988;BME280;5547;42.672;23.230;2023-02-19T08:42:51;93767.31;;;11.83;43.81
10988;BME280;5547;42.672;23.230;2023-02-19T08:45:53;93786.75;;;12.14;44.06
10988;BME280;5547;42.672;23.230;2023-02-19T08:48:54;93783.75;;;12.08;44.19
10988;BME280;5547;42.672;23.230;2023-02-19T08:51:54;93775.97;;;12.21;44.14
10988;BME280;5547;42.672;23.230;2023-02-19T08:54:55;93781.47;;;11.76;46.35
10988;BME280;5547;42.672;23.230;2023-02-19T08:57:55;93767.47;;;11.72;46.37
10988;BME280;5547;42.672;23.230;2023-02-19T09:00:56;93754.28;;;11.92;45.83
10988;BME280;5547;42.672;23.230;2023-02-19T09:03:56;93593.81;;;10.58;45.50
10988;BME280;5547;42.672;23.230;2023-02-19T09:06:57;93763.38;;;11.94;46.35
10988;BME280;5547;42.672;23.230;2023-02-19T09:09:59;93726.03;;;11.98;45.65
10988;BME280;5547;42.672;23.230;2023-02-19T09:12:59;93754.25;;;12.23;45.13
10988;BME280;5547;42.672;23.230;2023-02-19T09:16:03;93731.81;;;12.20;45.56
10988;BME280;5547;42.672;23.230;2023-02-19T09:19:03;93727.22;;;12.21;45.09
10988;BME280;5547;42.672;23.230;2023-02-19T09:22:04;93746.59;;;12.25;44.91
10988;BME280;5547;42.672;23.230;2023-02-19T09:25:05;93715.97;;;12.09;45.22
10988;BME280;5547;42.672;23.230;2023-02-19T09:28:06;93748.69;;;12.37;45.48
10988;BME280;5547;42.672;23.230;2023-02-19T09:31:13;93740.47;;;12.51;44.43
10988;BME280;5547;42.672;23.230;2023-02-19T09:34:14;93738.38;;;12.39;44.04
10988;BME280;5547;42.672;23.230;2023-02-19T09:37:14;93735.75;;;12.08;43.33
10988;BME280;5547;42.672;23.230;2023-02-19T09:40:15;93749.44;;;12.37;43.48
10988;BME280;5547;42.672;23.230;2023-02-19T09:43:23;93745.28;;;12.36;43.75
10988;BME280;5547;42.672;23.230;2023-02-19T09:46:52;93738.72;;;12.41;42.98
10988;BME280;5547;42.672;23.230;2023-02-19T09:50:00;93741.22;;;12.75;43.07
10988;BME280;5547;42.672;23.230;2023-02-19T09:53:14;93736.28;;;12.97;42.04
10988;BME280;5547;42.672;23.230;2023-02-19T09:56:16;93727.78;;;12.82;42.10
10988;BME280;5547;42.672;23.230;2023-02-19T09:59:24;93716.84;;;13.17;42.12
10988;BME280;5547;42.672;23.230;2023-02-19T10:02:25;93681.47;;;12.69;41.73
10988;BME280;5547;42.672;23.230;2023-02-19T10:05:27;93681.81;;;12.91;41.26
10988;BME280;5547;42.672;23.230;2023-02-19T10:08:31;93655.81;;;12.95;41.53
10988;BME280;5547;42.672;23.230;2023-02-19T10:11:32;93629.06;;;12.99;41.11
10988;BME280;5547;42.672;23.230;2023-02-19T10:14:39;93682.34;;;13.46;40.86
10988;BME280;5547;42.672;23.230;2023-02-19T10:17:41;93677.75;;;13.47;41.90
10988;BME280;5547;42.672;23.230;2023-02-19T10:20:41;93673.31;;;13.76;40.87
10988;BME280;5547;42.672;23.230;2023-02-19T10:23:44;93665.28;;;13.76;40.26
10988;BME280;5547;42.672;23.230;2023-02-19T10:26:46;93656.41;;;13.63;40.14
10988;BME280;5547;42.672;23.230;2023-02-19T10:29:48;93652.66;;;13.77;40.06
10988;BME280;5547;42.672;23.230;2023-02-19T10:33:10;93656.28;;;13.86;40.15
10988;BME280;5547;42.672;23.230;2023-02-19T10:36:32;93645.72;;;13.63;39.97
10988;BME280;5547;42.672;23.230;2023-02-19T10:39:43;93651.84;;;13.80;40.87
10988;BME280;5547;42.672;23.230;2023-02-19T10:42:52;93590.75;;;13.45;40.19
10988;BME280;5547;42.672;23.230;2023-02-19T10:45:53;93627.53;;;13.74;39.47
10988;BME280;5547;42.672;23.230;2023-02-19T10:48:56;93619.25;;;13.69;40.15
10988;BME280;5547;42.672;23.230;2023-02-19T10:52:18;93613.81;;;13.88;39.36
10988;BME280;5547;42.672;23.230;2023-02-19T10:58:24;93563.69;;;13.60;39.42
10988;BME280;5547;42.672;23.230;2023-02-19T11:01:27;93589.84;;;13.85;39.38
10988;BME280;5547;42.672;23.230;2023-02-19T11:04:31;93566.47;;;14.05;39.51
10988;BME280;5547;42.672;23.230;2023-02-19T11:07:43;93568.88;;;14.00;39.03
10988;BME280;5547;42.672;23.230;2023-02-19T11:10:46;93565.34;;;14.19;39.29
10988;BME280;5547;42.672;23.230;2023-02-19T11:13:47;93544.97;;;14.09;38.92
10988;BME280;5547;42.672;23.230;2023-02-19T11:19:51;93519.50;;;14.34;38.58
10988;BME280;5547;42.672;23.230;2023-02-19T11:23:00;93540.69;;;14.57;38.51
10988;BME280;5547;42.672;23.230;2023-02-19T11:26:06;93511.19;;;14.44;38.75
10988;BME280;5547;42.672;23.230;2023-02-19T11:29:20;93541.28;;;14.65;38.98
10988;BME280;5547;42.672;23.230;2023-02-19T11:32:24;93531.84;;;14.73;37.63
10988;BME280;5547;42.672;23.230;2023-02-19T11:35:25;93536.06;;;14.87;37.40
10988;BME280;5547;42.672;23.230;2023-02-19T11:38:26;93520.84;;;14.84;36.97
10988;BME280;5547;42.672;23.230;2023-02-19T11:48:57;93515.28;;;14.91;35.83
10988;BME280;5547;42.672;23.230;2023-02-19T12:05:33;93484.66;;;14.92;35.74
10988;BME280;5547;42.672;23.230;2023-02-19T12:08:59;93463.97;;;14.92;35.41
10988;BME280;5547;42.672;23.230;2023-02-19T12:22:35;93463.13;;;14.96;35.89
10988;BME280;5547;42.672;23.230;2023-02-19T12:26:34;93452.41;;;14.96;34.96
10988;BME280;5547;42.672;23.230;2023-02-19T12:32:29;93438.69;;;15.06;35.44
10988;BME280;5547;42.672;23.230;2023-02-19T12:35:54;93336.28;;;14.38;35.03
10988;BME280;5547;42.672;23.230;2023-02-19T12:45:46;93412.22;;;15.08;36.15
10988;BME280;5547;42.672;23.230;2023-02-19T12:48:55;93348.09;;;14.66;34.57
10988;BME280;5547;42.672;23.230;2023-02-19T12:51:59;93392.41;;;15.06;35.41
10988;BME280;5547;42.672;23.230;2023-02-19T12:55:20;93369.38;;;14.83;35.35
10988;BME280;5547;42.672;23.230;2023-02-19T12:58:28;93356.09;;;14.92;35.74
10988;BME280;5547;42.672;23.230;2023-02-19T13:01:38;93332.66;;;14.83;35.15
10988;BME280;5547;42.672;23.230;2023-02-19T13:04:51;93374.28;;;14.97;35.73
10988;BME280;5547;42.672;23.230;2023-02-19T13:11:02;93371.66;;;14.84;35.81
10988;BME280;5547;42.672;23.230;2023-02-19T13:14:16;93364.59;;;14.90;36.13
10988;BME280;5547;42.672;23.230;2023-02-19T13:17:49;93361.16;;;14.77;35.91
10988;BME280;5547;42.672;23.230;2023-02-19T13:20:51;93357.41;;;14.62;35.95
10988;BME280;5547;42.672;23.230;2023-02-19T13:23:55;93345.72;;;14.94;35.29
10988;BME280;5547;42.672;23.230;2023-02-19T13:36:58;93315.19;;;14.79;35.15
10988;BME280;5547;42.672;23.230;2023-02-19T13:40:03;93303.22;;;14.58;36.53
10988;BME280;5547;42.672;23.230;2023-02-19T13:43:18;93283.41;;;14.29;36.16
10988;BME280;5547;42.672;23.230;2023-02-19T13:46:23;93273.03;;;14.32;35.64
10988;BME280;5547;42.672;23.230;2023-02-19T13:55:45;93317.03;;;14.69;35.87
10988;BME280;5547;42.672;23.230;2023-02-19T13:59:12;93308.03;;;14.50;36.22
10988;BME280;5547;42.672;23.230;2023-02-19T14:05:56;93298.41;;;14.40;37.14
10988;BME280;5547;42.672;23.230;2023-02-19T14:08:57;93264.25;;;14.18;37.10
10988;BME280;5547;42.672;23.230;2023-02-19T14:18:43;93287.63;;;14.56;36.13
10988;BME280;5547;42.672;23.230;2023-02-19T14:21:44;93283.06;;;14.53;35.96
10988;BME280;5547;42.672;23.230;2023-02-19T14:24:45;93274.56;;;14.58;36.12
10988;BME280;5547;42.672;23.230;2023-02-19T14:27:46;93260.56;;;14.89;35.29
10988;BME280;5547;42.672;23.230;2023-02-19T14:34:18;93269.09;;;15.09;36.63
10988;BME280;5547;42.672;23.230;2023-02-19T14:37:22;93250.25;;;15.00;35.24
10988;BME280;5547;42.672;23.230;2023-02-19T14:40:39;93264.72;;;15.03;35.70
10988;BME280;5547;42.672;23.230;2023-02-19T14:43:44;93192.84;;;14.54;36.15
10988;BME280;5547;42.672;23.230;2023-02-19T14:46:53;93235.50;;;14.83;36.46
10988;BME280;5547;42.672;23.230;2023-02-19T14:50:00;93258.47;;;15.06;36.11
10988;BME280;5547;42.672;23.230;2023-02-19T14:53:03;93219.44;;;14.83;36.01
10988;BME280;5547;42.672;23.230;2023-02-19T14:56:24;93251.31;;;15.03;36.17
10988;BME280;5547;42.672;23.230;2023-02-19T14:59:27;93240.22;;;14.79;36.69
10988;BME280;5547;42.672;23.230;2023-02-19T15:02:41;93167.44;;;14.23;37.80
10988;BME280;5547;42.672;23.230;2023-02-19T15:05:42;93129.28;;;13.84;37.09
10988;BME280;5547;42.672;23.230;2023-02-19T15:08:48;93241.88;;;14.50;37.28
10988;BME280;5547;42.672;23.230;2023-02-19T15:11:49;93225.97;;;14.21;37.25
10988;BME280;5547;42.672;23.230;2023-02-19T15:14:53;93236.44;;;14.28;37.10
10988;BME280;5547;42.672;23.230;2023-02-19T15:17:55;93237.63;;;14.15;37.61
10988;BME280;5547;42.672;23.230;2023-02-19T15:20:59;93191.63;;;13.69;38.03
10988;BME280;5547;42.672;23.230;2023-02-19T15:24:02;93245.44;;;14.22;36.92
10988;BME280;5547;42.672;23.230;2023-02-19T15:27:04;93086.13;;;12.93;38.09
10988;BME280;5547;42.672;23.230;2023-02-19T15:30:18;93201.53;;;13.55;38.26
10988;BME280;5547;42.672;23.230;2023-02-19T15:33:19;93235.69;;;14.02;37.43
10988;BME280;5547;42.672;23.230;2023-02-19T15:36:32;93191.50;;;13.72;37.42
10988;BME280;5547;42.672;23.230;2023-02-19T15:39:37;93262.25;;;14.10;36.95
10988;BME280;5547;42.672;23.230;2023-02-19T15:42:38;93266.19;;;14.05;36.92
10988;BME280;5547;42.672;23.230;2023-02-19T15:45:45;93206.44;;;13.44;37.32
10988;BME280;5547;42.672;23.230;2023-02-19T15:48:53;93280.94;;;13.97;36.96
10988;BME280;5547;42.672;23.230;2023-02-19T15:52:05;93279.81;;;13.69;39.48
10988;BME280;5547;42.672;23.230;2023-02-19T15:55:34;93289.69;;;13.26;40.96
10988;BME280;5547;42.672;23.230;2023-02-19T15:58:48;93290.06;;;13.12;41.73
10988;BME280;5547;42.672;23.230;2023-02-19T16:01:50;93254.84;;;12.55;42.93
10988;BME280;5547;42.672;23.230;2023-02-19T16:04:51;93291.34;;;12.58;44.03
10988;BME280;5547;42.672;23.230;2023-02-19T16:08:17;93297.28;;;12.49;43.88
10988;BME280;5547;42.672;23.230;2023-02-19T16:14:30;93297.19;;;12.36;43.82
10988;BME280;5547;42.672;23.230;2023-02-19T16:17:32;93271.34;;;12.33;43.17
10988;BME280;5547;42.672;23.230;2023-02-19T16:20:34;93264.56;;;12.12;42.51
10988;BME280;5547;42.672;23.230;2023-02-19T16:23:40;93309.44;;;12.34;42.34
10988;BME280;5547;42.672;23.230;2023-02-19T16:26:43;93302.19;;;12.34;42.00
10988;BME280;5547;42.672;23.230;2023-02-19T16:29:49;93289.69;;;11.95;42.86
10988;BME280;5547;42.672;23.230;2023-02-19T16:33:19;93318.44;;;12.04;42.99
10988;BME280;5547;42.672;23.230;2023-02-19T16:39:31;93291.88;;;11.80;42.21
10988;BME280;5547;42.672;23.230;2023-02-19T16:42:36;93326.38;;;11.87;42.76
10988;BME280;5547;42.672;23.230;2023-02-19T16:45:40;93332.59;;;12.01;41.86
10988;BME280;5547;42.672;23.230;2023-02-19T16:48:40;93335.53;;;11.66;42.64
10988;BME280;5547;42.672;23.230;2023-02-19T16:51:43;93343.66;;;11.59;42.90
10988;BME280;5547;42.672;23.230;2023-02-19T16:54:43;93294.19;;;11.18;42.89
10988;BME280;5547;42.672;23.230;2023-02-19T16:57:44;93299.00;;;11.03;43.31
10988;BME280;5547;42.672;23.230;2023-02-19T17:00:44;93334.66;;;11.09;43.87
10988;BME280;5547;42.672;23.230;2023-02-19T17:03:45;93274.63;;;10.38;45.03
10988;BME280;5547;42.672;23.230;2023-02-19T17:06:46;93353.84;;;10.97;44.31
10988;BME280;5547;42.672;23.230;2023-02-19T17:09:47;93298.06;;;11.13;41.14
10988;BME280;5547;42.672;23.230;2023-02-19T17:12:48;93363.28;;;11.25;42.47
10988;BME280;5547;42.672;23.230;2023-02-19T17:15:49;93340.84;;;11.03;42.94
10988;BME280;5547;42.672;23.230;2023-02-19T17:18:49;93186.78;;;9.94;42.68
10988;BME280;5547;42.672;23.230;2023-02-19T17:21:50;93306.25;;;10.79;42.07
10988;BME280;5547;42.672;23.230;2023-02-19T17:24:51;93341.69;;;11.20;41.46
10988;BME280;5547;42.672;23.230;2023-02-19T17:27:53;93369.88;;;11.17;42.62
10988;BME280;5547;42.672;23.230;2023-02-19T17:30:54;93340.50;;;11.01;42.29
10988;BME280;5547;42.672;23.230;2023-02-19T17:33:54;93332.34;;;11.11;42.21
10988;BME280;5547;42.672;23.230;2023-02-19T17:36:55;93389.09;;;11.28;42.67
10988;BME280;5547;42.672;23.230;2023-02-19T17:39:56;93381.72;;;11.36;42.67
10988;BME280;5547;42.672;23.230;2023-02-19T17:42:56;93397.53;;;11.47;42.48
10988;BME280;5547;42.672;23.230;2023-02-19T17:45:57;93402.63;;;11.38;43.04
10988;BME280;5547;42.672;23.230;2023-02-19T17:48:57;93202.03;;;10.14;42.00
10988;BME280;5547;42.672;23.230;2023-02-19T17:51:58;93252.69;;;10.03;43.42
10988;BME280;5547;42.672;23.230;2023-02-19T17:54:58;93401.94;;;11.10;43.69
10988;BME280;5547;42.672;23.230;2023-02-19T17:57:59;93361.78;;;10.77;43.94
10988;BME280;5547;42.672;23.230;2023-02-19T18:00:59;93412.75;;;10.99;44.60
10988;BME280;5547;42.672;23.230;2023-02-19T18:04:00;93411.75;;;10.89;44.65
10988;BME280;5547;42.672;23.230;2023-02-19T18:07:00;93413.44;;;10.80;44.85
10988;BME280;5547;42.672;23.230;2023-02-19T18:10:02;93417.03;;;10.93;44.25
10988;BME280;5547;42.672;23.230;2023-02-19T18:13:03;93424.66;;;10.91;44.64
10988;BME280;5547;42.672;23.230;2023-02-19T18:16:04;93363.63;;;10.53;44.64
10988;BME280;5547;42.672;23.230;2023-02-19T18:19:06;93434.75;;;11.03;44.31
10988;BME280;5547;42.672;23.230;2023-02-19T18:22:06;93391.53;;;10.68;44.73